sensor_id;sensor_type;location;lat;lon;timestamp;pressure;altitude;pressure_sealevel;temperature
68939;BMP180;59064;45.294;11.816;2022-11-11T00:00:35;102925.20;;;11.50
68939;BMP180;59064;45.294;11.816;2022-11-11T00:03:01;102924.20;;;11.50
68939;BMP180;59064;45.294;11.816;2022-11-11T00:05:26;102921.80;;;11.50
68939;BMP180;59064;45.294;11.816;2022-11-11T00:07:53;102922.00;;;11.56
68939;BMP180;59064;45.294;11.816;2022-11-11T00:10:28;102923.20;;;11.60
68939;BMP180;59064;45.294;11.816;2022-11-11T00:12:58;102925.40;;;11.58
68939;BMP180;59064;45.294;11.816;2022-11-11T00:15:24;102922.60;;;11.54
68939;BMP180;59064;45.294;11.816;2022-11-11T00:17:49;102917.20;;;11.56
68939;BMP180;59064;45.294;11.816;2022-11-11T00:20:35;102916.00;;;11.60
68939;BMP180;59064;45.294;11.816;2022-11-11T00:23:21;102917.20;;;11.60
68939;BMP180;59064;45.294;11.816;2022-11-11T00:26:06;102917.80;;;11.60
68939;BMP180;59064;45.294;11.816;2022-11-11T00:28:32;102918.80;;;11.60
68939;BMP180;59064;45.294;11.816;2022-11-11T00:31:05;102920.40;;;11.60
68939;BMP180;59064;45.294;11.816;2022-11-11T00:33:31;102926.60;;;11.60
68939;BMP180;59064;45.294;11.816;2022-11-11T00:35:58;102929.40;;;11.60
68939;BMP180;59064;45.294;11.816;2022-11-11T00:38:23;102930.60;;;11.54
68939;BMP180;59064;45.294;11.816;2022-11-11T00:41:16;102930.60;;;11.50
68939;BMP180;59064;45.294;11.816;2022-11-11T00:43:43;102928.80;;;11.40
68939;BMP180;59064;45.294;11.816;2022-11-11T00:46:09;102928.60;;;11.40
68939;BMP180;59064;45.294;11.816;2022-11-11T00:48:54;102933.80;;;11.30
68939;BMP180;59064;45.294;11.816;2022-11-11T00:51:38;102934.00;;;11.26
68939;BMP180;59064;45.294;11.816;2022-11-11T00:54:04;102936.60;;;11.28
68939;BMP180;59064;45.294;11.816;2022-11-11T00:56:30;102934.40;;;11.28
68939;BMP180;59064;45.294;11.816;2022-11-11T00:58:55;102930.20;;;11.24
68939;BMP180;59064;45.294;11.816;2022-11-11T01:01:21;102929.40;;;11.20
68939;BMP180;59064;45.294;11.816;2022-11-11T01:03:46;102935.00;;;11.20
68939;BMP180;59064;45.294;11.816;2022-11-11T01:06:12;102929.80;;;11.18
68939;BMP180;59064;45.294;11.816;2022-11-11T01:08:38;102933.00;;;11.10
68939;BMP180;59064;45.294;11.816;2022-11-11T01:11:12;102933.60;;;11.10
68939;BMP180;59064;45.294;11.816;2022-11-11T01:13:38;102936.00;;;11.10
68939;BMP180;59064;45.294;11.816;2022-11-11T01:16:06;102934.20;;;11.04
68939;BMP180;59064;45.294;11.816;2022-11-11T01:18:32;102930.00;;;11.04
68939;BMP180;59064;45.294;11.816;2022-11-11T01:23:23;102939.20;;;11.00
68939;BMP180;59064;45.294;11.816;2022-11-11T01:25:49;102944.60;;;11.00
68939;BMP180;59064;45.294;11.816;2022-11-11T01:28:17;102949.80;;;11.00
68939;BMP180;59064;45.294;11.816;2022-11-11T01:30:42;102951.40;;;10.90
68939;BMP180;59064;45.294;11.816;2022-11-11T01:33:09;102947.00;;;10.90
68939;BMP180;59064;45.294;11.816;2022-11-11T01:35:40;102945.60;;;10.90
68939;BMP180;59064;45.294;11.816;2022-11-11T01:38:07;102947.00;;;10.90
68939;BMP180;59064;45.294;11.816;2022-11-11T01:40:46;102952.00;;;10.90
68939;BMP180;59064;45.294;11.816;2022-11-11T01:48:16;102965.40;;;10.90
68939;BMP180;59064;45.294;11.816;2022-11-11T01:51:01;102967.40;;;10.90
68939;BMP180;59064;45.294;11.816;2022-11-11T01:53:28;102962.60;;;10.90
68939;BMP180;59064;45.294;11.816;2022-11-11T01:55:54;102957.20;;;10.90
68939;BMP180;59064;45.294;11.816;2022-11-11T01:58:20;102953.80;;;10.86
68939;BMP180;59064;45.294;11.816;2022-11-11T02:00:45;102956.00;;;10.80
68939;BMP180;59064;45.294;11.816;2022-11-11T02:03:12;102953.20;;;10.80
68939;BMP180;59064;45.294;11.816;2022-11-11T02:05:38;102944.60;;;10.80
68939;BMP180;59064;45.294;11.816;2022-11-11T02:08:30;102938.80;;;10.80
68939;BMP180;59064;45.294;11.816;2022-11-11T02:11:11;102940.60;;;10.80
68939;BMP180;59064;45.294;11.816;2022-11-11T02:13:39;102942.00;;;10.80
68939;BMP180;59064;45.294;11.816;2022-11-11T02:16:24;102952.20;;;10.90
68939;BMP180;59064;45.294;11.816;2022-11-11T02:18:50;102950.80;;;10.86
68939;BMP180;59064;45.294;11.816;2022-11-11T02:21:22;102950.60;;;10.80
68939;BMP180;59064;45.294;11.816;2022-11-11T02:24:06;102953.00;;;10.80
68939;BMP180;59064;45.294;11.816;2022-11-11T02:26:35;102954.40;;;10.80
68939;BMP180;59064;45.294;11.816;2022-11-11T02:29:07;102955.40;;;10.70
68939;BMP180;59064;45.294;11.816;2022-11-11T02:31:33;102950.20;;;10.60
68939;BMP180;59064;45.294;11.816;2022-11-11T02:33:59;102951.40;;;10.50
68939;BMP180;59064;45.294;11.816;2022-11-11T02:36:25;102952.20;;;10.30
68939;BMP180;59064;45.294;11.816;2022-11-11T02:38:51;102950.20;;;10.20
68939;BMP180;59064;45.294;11.816;2022-11-11T02:41:17;102946.40;;;10.10
68939;BMP180;59064;45.294;11.816;2022-11-11T02:44:01;102945.40;;;9.90
68939;BMP180;59064;45.294;11.816;2022-11-11T02:46:27;102945.40;;;9.80
68939;BMP180;59064;45.294;11.816;2022-11-11T02:48:52;102942.80;;;9.70
68939;BMP180;59064;45.294;11.816;2022-11-11T02:51:18;102941.20;;;9.60
68939;BMP180;59064;45.294;11.816;2022-11-11T02:53:43;102936.60;;;9.60
68939;BMP180;59064;45.294;11.816;2022-11-11T02:56:09;102938.00;;;9.52
68939;BMP180;59064;45.294;11.816;2022-11-11T02:58:34;102937.20;;;9.50
68939;BMP180;59064;45.294;11.816;2022-11-11T03:00:59;102942.60;;;9.50
68939;BMP180;59064;45.294;11.816;2022-11-11T03:03:25;102945.20;;;9.40
68939;BMP180;59064;45.294;11.816;2022-11-11T03:05:50;102938.60;;;9.40
68939;BMP180;59064;45.294;11.816;2022-11-11T03:08:16;102938.00;;;9.36
68939;BMP180;59064;45.294;11.816;2022-11-11T03:10:41;102939.00;;;9.30
68939;BMP180;59064;45.294;11.816;2022-11-11T03:13:07;102948.80;;;9.30
68939;BMP180;59064;45.294;11.816;2022-11-11T03:15:34;102947.20;;;9.20
68939;BMP180;59064;45.294;11.816;2022-11-11T03:17:59;102944.60;;;9.20
68939;BMP180;59064;45.294;11.816;2022-11-11T03:20:25;102952.00;;;9.10
68939;BMP180;59064;45.294;11.816;2022-11-11T03:23:15;102954.80;;;9.10
68939;BMP180;59064;45.294;11.816;2022-11-11T03:25:43;102956.00;;;9.02
68939;BMP180;59064;45.294;11.816;2022-11-11T03:28:14;102957.20;;;9.00
68939;BMP180;59064;45.294;11.816;2022-11-11T03:30:41;102961.20;;;9.00
68939;BMP180;59064;45.294;11.816;2022-11-11T03:33:07;102967.60;;;8.94
68939;BMP180;59064;45.294;11.816;2022-11-11T03:35:34;102970.20;;;8.90
68939;BMP180;59064;45.294;11.816;2022-11-11T03:38:00;102966.00;;;8.90
68939;BMP180;59064;45.294;11.816;2022-11-11T03:40:46;102970.80;;;8.90
68939;BMP180;59064;45.294;11.816;2022-11-11T03:43:13;102973.60;;;8.90
68939;BMP180;59064;45.294;11.816;2022-11-11T03:45:40;102975.20;;;8.80
68939;BMP180;59064;45.294;11.816;2022-11-11T03:48:06;102978.40;;;8.80
68939;BMP180;59064;45.294;11.816;2022-11-11T03:50:31;102983.60;;;8.80
68939;BMP180;59064;45.294;11.816;2022-11-11T03:52:57;102977.60;;;8.80
68939;BMP180;59064;45.294;11.816;2022-11-11T03:55:22;102975.20;;;8.76
68939;BMP180;59064;45.294;11.816;2022-11-11T03:57:48;102978.40;;;8.80
68939;BMP180;59064;45.294;11.816;2022-11-11T04:00:18;102983.60;;;8.70
68939;BMP180;59064;45.294;11.816;2022-11-11T04:02:44;102979.40;;;8.70
68939;BMP180;59064;45.294;11.816;2022-11-11T04:05:29;102975.20;;;8.70
68939;BMP180;59064;45.294;11.816;2022-11-11T04:08:15;102979.00;;;8.70
68939;BMP180;59064;45.294;11.816;2022-11-11T04:11:14;102978.00;;;8.70
68939;BMP180;59064;45.294;11.816;2022-11-11T04:13:45;102977.60;;;8.70
68939;BMP180;59064;45.294;11.816;2022-11-11T04:16:30;102976.80;;;8.70
68939;BMP180;59064;45.294;11.816;2022-11-11T04:18:55;102977.20;;;8.70
68939;BMP180;59064;45.294;11.816;2022-11-11T04:21:39;102982.60;;;8.70
68939;BMP180;59064;45.294;11.816;2022-11-11T04:24:12;102980.80;;;8.76
68939;BMP180;59064;45.294;11.816;2022-11-11T04:26:57;102983.20;;;8.80
68939;BMP180;59064;45.294;11.816;2022-11-11T04:29:24;102976.80;;;8.80
68939;BMP180;59064;45.294;11.816;2022-11-11T04:32:04;102979.80;;;8.80
68939;BMP180;59064;45.294;11.816;2022-11-11T04:34:50;102985.60;;;8.80
68939;BMP180;59064;45.294;11.816;2022-11-11T04:37:17;102987.60;;;8.80
68939;BMP180;59064;45.294;11.816;2022-11-11T04:39:43;102985.60;;;8.84
68939;BMP180;59064;45.294;11.816;2022-11-11T04:42:29;102986.60;;;8.90
68939;BMP180;59064;45.294;11.816;2022-11-11T04:44:55;102991.00;;;8.90
68939;BMP180;59064;45.294;11.816;2022-11-11T04:50:21;102996.20;;;9.00
68939;BMP180;59064;45.294;11.816;2022-11-11T04:52:47;102998.60;;;9.00
68939;BMP180;59064;45.294;11.816;2022-11-11T04:55:13;102992.40;;;9.08
68939;BMP180;59064;45.294;11.816;2022-11-11T04:57:57;102985.00;;;9.10
68939;BMP180;59064;45.294;11.816;2022-11-11T05:00:23;102982.80;;;9.10
68939;BMP180;59064;45.294;11.816;2022-11-11T05:02:52;102980.00;;;9.10
68939;BMP180;59064;45.294;11.816;2022-11-11T05:05:36;102979.00;;;9.20
68939;BMP180;59064;45.294;11.816;2022-11-11T05:08:21;102973.20;;;9.30
68939;BMP180;59064;45.294;11.816;2022-11-11T05:11:05;102971.00;;;9.40
68939;BMP180;59064;45.294;11.816;2022-11-11T05:13:31;102974.40;;;9.44
68939;BMP180;59064;45.294;11.816;2022-11-11T05:16:18;102975.20;;;9.50
68939;BMP180;59064;45.294;11.816;2022-11-11T05:19:02;102971.00;;;9.50
68939;BMP180;59064;45.294;11.816;2022-11-11T05:21:46;102973.40;;;9.50
68939;BMP180;59064;45.294;11.816;2022-11-11T05:24:12;102974.80;;;9.50
68939;BMP180;59064;45.294;11.816;2022-11-11T05:26:56;102972.20;;;9.50
68939;BMP180;59064;45.294;11.816;2022-11-11T05:29:21;102975.00;;;9.42
68939;BMP180;59064;45.294;11.816;2022-11-11T05:31:47;102977.20;;;9.40
68939;BMP180;59064;45.294;11.816;2022-11-11T05:34:12;102980.60;;;9.40
68939;BMP180;59064;45.294;11.816;2022-11-11T05:36:37;102984.20;;;9.38
68939;BMP180;59064;45.294;11.816;2022-11-11T05:39:03;102985.40;;;9.30
68939;BMP180;59064;45.294;11.816;2022-11-11T05:41:28;102984.40;;;9.20
68939;BMP180;59064;45.294;11.816;2022-11-11T05:43:54;102983.20;;;9.20
68939;BMP180;59064;45.294;11.816;2022-11-11T05:46:19;102985.80;;;9.20
68939;BMP180;59064;45.294;11.816;2022-11-11T05:48:45;102987.20;;;9.10
68939;BMP180;59064;45.294;11.816;2022-11-11T05:51:29;102993.80;;;9.10
68939;BMP180;59064;45.294;11.816;2022-11-11T05:53:56;103001.40;;;9.10
68939;BMP180;59064;45.294;11.816;2022-11-11T05:56:21;103000.60;;;9.10
68939;BMP180;59064;45.294;11.816;2022-11-11T05:58:47;103000.80;;;9.00
68939;BMP180;59064;45.294;11.816;2022-11-11T06:01:12;103001.60;;;9.00
68939;BMP180;59064;45.294;11.816;2022-11-11T06:03:38;103006.00;;;8.92
68939;BMP180;59064;45.294;11.816;2022-11-11T06:06:03;103005.00;;;8.90
68939;BMP180;59064;45.294;11.816;2022-11-11T06:08:29;103011.40;;;8.90
68939;BMP180;59064;45.294;11.816;2022-11-11T06:10:54;103010.20;;;8.90
68939;BMP180;59064;45.294;11.816;2022-11-11T06:13:20;103020.20;;;8.90
68939;BMP180;59064;45.294;11.816;2022-11-11T06:15:45;103026.40;;;8.88
68939;BMP180;59064;45.294;11.816;2022-11-11T06:21:55;103023.80;;;8.90
68939;BMP180;59064;45.294;11.816;2022-11-11T06:25:01;103026.60;;;8.90
68939;BMP180;59064;45.294;11.816;2022-11-11T06:27:44;103031.20;;;9.00
68939;BMP180;59064;45.294;11.816;2022-11-11T06:30:10;103030.80;;;8.92
68939;BMP180;59064;45.294;11.816;2022-11-11T06:32:35;103031.20;;;8.90
68939;BMP180;59064;45.294;11.816;2022-11-11T06:35:01;103028.40;;;8.90
68939;BMP180;59064;45.294;11.816;2022-11-11T06:37:26;103025.80;;;8.92
68939;BMP180;59064;45.294;11.816;2022-11-11T06:39:51;103021.80;;;9.00
68939;BMP180;59064;45.294;11.816;2022-11-11T06:42:17;103022.00;;;9.08
68939;BMP180;59064;45.294;11.816;2022-11-11T06:44:42;103019.80;;;9.10
68939;BMP180;59064;45.294;11.816;2022-11-11T06:47:08;103020.80;;;9.12
68939;BMP180;59064;45.294;11.816;2022-11-11T06:49:33;103028.00;;;9.28
68939;BMP180;59064;45.294;11.816;2022-11-11T06:51:59;103027.80;;;9.34
68939;BMP180;59064;45.294;11.816;2022-11-11T06:54:24;103026.00;;;9.50
68939;BMP180;59064;45.294;11.816;2022-11-11T06:56:50;103025.40;;;9.60
68939;BMP180;59064;45.294;11.816;2022-11-11T06:59:15;103019.80;;;9.70
68939;BMP180;59064;45.294;11.816;2022-11-11T07:01:41;103027.40;;;9.80
68939;BMP180;59064;45.294;11.816;2022-11-11T07:04:06;103033.80;;;9.98
68939;BMP180;59064;45.294;11.816;2022-11-11T07:06:32;103035.60;;;10.10
68939;BMP180;59064;45.294;11.816;2022-11-11T07:08:57;103043.20;;;10.20
68939;BMP180;59064;45.294;11.816;2022-11-11T07:11:23;103047.40;;;10.32
68939;BMP180;59064;45.294;11.816;2022-11-11T07:13:48;103053.60;;;10.50
68939;BMP180;59064;45.294;11.816;2022-11-11T07:16:13;103061.40;;;10.76
68939;BMP180;59064;45.294;11.816;2022-11-11T07:18:39;103068.80;;;10.92
68939;BMP180;59064;45.294;11.816;2022-11-11T07:21:05;103069.20;;;11.08
68939;BMP180;59064;45.294;11.816;2022-11-11T07:23:30;103074.60;;;11.20
68939;BMP180;59064;45.294;11.816;2022-11-11T07:25:56;103073.40;;;11.38
68939;BMP180;59064;45.294;11.816;2022-11-11T07:28:21;103070.80;;;11.54
68939;BMP180;59064;45.294;11.816;2022-11-11T07:30:47;103074.20;;;11.70
68939;BMP180;59064;45.294;11.816;2022-11-11T07:33:12;103074.00;;;11.90
68939;BMP180;59064;45.294;11.816;2022-11-11T07:35:38;103075.20;;;12.02
68939;BMP180;59064;45.294;11.816;2022-11-11T07:38:03;103080.60;;;12.18
68939;BMP180;59064;45.294;11.816;2022-11-11T07:40:29;103086.80;;;12.32
68939;BMP180;59064;45.294;11.816;2022-11-11T07:42:54;103094.20;;;12.50
68939;BMP180;59064;45.294;11.816;2022-11-11T07:45:19;103093.20;;;12.70
68939;BMP180;59064;45.294;11.816;2022-11-11T07:47:45;103100.60;;;12.90
68939;BMP180;59064;45.294;11.816;2022-11-11T07:50:11;103107.40;;;13.10
68939;BMP180;59064;45.294;11.816;2022-11-11T07:52:37;103114.00;;;13.20
68939;BMP180;59064;45.294;11.816;2022-11-11T07:55:04;103115.20;;;13.28
68939;BMP180;59064;45.294;11.816;2022-11-11T07:57:30;103124.40;;;13.32
68939;BMP180;59064;45.294;11.816;2022-11-11T07:59:55;103121.60;;;13.44
68939;BMP180;59064;45.294;11.816;2022-11-11T08:02:21;103122.40;;;13.60
68939;BMP180;59064;45.294;11.816;2022-11-11T08:04:46;103116.40;;;13.72
68939;BMP180;59064;45.294;11.816;2022-11-11T08:07:13;103115.20;;;13.92
68939;BMP180;59064;45.294;11.816;2022-11-11T08:09:38;103115.80;;;14.12
68939;BMP180;59064;45.294;11.816;2022-11-11T08:12:04;103105.00;;;14.30
68939;BMP180;59064;45.294;11.816;2022-11-11T08:14:48;103108.40;;;14.48
68939;BMP180;59064;45.294;11.816;2022-11-11T08:17:13;103118.60;;;14.56
68939;BMP180;59064;45.294;11.816;2022-11-11T08:19:39;103125.20;;;14.60
68939;BMP180;59064;45.294;11.816;2022-11-11T08:22:04;103129.20;;;14.60
68939;BMP180;59064;45.294;11.816;2022-11-11T08:24:30;103131.60;;;14.70
68939;BMP180;59064;45.294;11.816;2022-11-11T08:26:56;103137.60;;;14.86
68939;BMP180;59064;45.294;11.816;2022-11-11T08:29:21;103141.40;;;15.00
68939;BMP180;59064;45.294;11.816;2022-11-11T08:31:46;103146.40;;;15.14
68939;BMP180;59064;45.294;11.816;2022-11-11T08:34:12;103153.20;;;15.30
68939;BMP180;59064;45.294;11.816;2022-11-11T08:36:38;103151.60;;;15.50
68939;BMP180;59064;45.294;11.816;2022-11-11T08:39:05;103156.00;;;15.66
68939;BMP180;59064;45.294;11.816;2022-11-11T08:41:30;103156.40;;;15.70
68939;BMP180;59064;45.294;11.816;2022-11-11T08:43:56;103154.80;;;15.90
68939;BMP180;59064;45.294;11.816;2022-11-11T08:46:22;103153.20;;;16.20
68939;BMP180;59064;45.294;11.816;2022-11-11T08:48:48;103158.20;;;16.28
68939;BMP180;59064;45.294;11.816;2022-11-11T08:51:14;103170.40;;;16.30
68939;BMP180;59064;45.294;11.816;2022-11-11T08:53:40;103164.40;;;16.38
68939;BMP180;59064;45.294;11.816;2022-11-11T08:56:06;103161.40;;;16.40
68939;BMP180;59064;45.294;11.816;2022-11-11T08:58:32;103160.40;;;16.40
68939;BMP180;59064;45.294;11.816;2022-11-11T09:00:58;103164.00;;;16.50
68939;BMP180;59064;45.294;11.816;2022-11-11T09:03:26;103170.80;;;16.60
68939;BMP180;59064;45.294;11.816;2022-11-11T09:05:51;103169.60;;;16.74
68939;BMP180;59064;45.294;11.816;2022-11-11T09:08:17;103166.40;;;16.90
68939;BMP180;59064;45.294;11.816;2022-11-11T09:10:42;103164.40;;;16.96
68939;BMP180;59064;45.294;11.816;2022-11-11T09:13:08;103165.20;;;17.00
68939;BMP180;59064;45.294;11.816;2022-11-11T09:15:33;103166.00;;;17.00
68939;BMP180;59064;45.294;11.816;2022-11-11T09:17:59;103175.40;;;17.00
68939;BMP180;59064;45.294;11.816;2022-11-11T09:20:26;103174.20;;;17.00
68939;BMP180;59064;45.294;11.816;2022-11-11T09:22:52;103179.20;;;16.88
68939;BMP180;59064;45.294;11.816;2022-11-11T09:25:17;103177.60;;;16.90
68939;BMP180;59064;45.294;11.816;2022-11-11T09:27:43;103179.40;;;16.90
68939;BMP180;59064;45.294;11.816;2022-11-11T09:30:09;103184.80;;;16.86
68939;BMP180;59064;45.294;11.816;2022-11-11T09:32:35;103188.40;;;16.80
68939;BMP180;59064;45.294;11.816;2022-11-11T09:35:02;103187.40;;;16.90
68939;BMP180;59064;45.294;11.816;2022-11-11T09:37:27;103189.00;;;16.90
68939;BMP180;59064;45.294;11.816;2022-11-11T09:39:54;103189.20;;;16.92
68939;BMP180;59064;45.294;11.816;2022-11-11T09:50:23;103195.80;;;16.80
68939;BMP180;59064;45.294;11.816;2022-11-11T09:52:58;103195.60;;;16.72
68939;BMP180;59064;45.294;11.816;2022-11-11T09:55:41;103190.60;;;16.76
68939;BMP180;59064;45.294;11.816;2022-11-11T09:58:16;103189.60;;;16.90
68939;BMP180;59064;45.294;11.816;2022-11-11T10:00:45;103184.40;;;17.00
68939;BMP180;59064;45.294;11.816;2022-11-11T10:03:17;103178.40;;;17.20
68939;BMP180;59064;45.294;11.816;2022-11-11T10:08:33;103183.40;;;17.30
68939;BMP180;59064;45.294;11.816;2022-11-11T10:11:01;103178.40;;;17.30
68939;BMP180;59064;45.294;11.816;2022-11-11T10:13:32;103175.60;;;17.30
68939;BMP180;59064;45.294;11.816;2022-11-11T10:19:01;103176.40;;;17.40
68939;BMP180;59064;45.294;11.816;2022-11-11T10:21:51;103170.80;;;17.50
68939;BMP180;59064;45.294;11.816;2022-11-11T10:24:32;103168.60;;;17.70
68939;BMP180;59064;45.294;11.816;2022-11-11T10:27:17;103166.60;;;17.72
68939;BMP180;59064;45.294;11.816;2022-11-11T10:29:44;103157.00;;;17.90
68939;BMP180;59064;45.294;11.816;2022-11-11T10:32:36;103149.20;;;18.00
68939;BMP180;59064;45.294;11.816;2022-11-11T10:35:31;103146.40;;;18.20
68939;BMP180;59064;45.294;11.816;2022-11-11T10:40:47;103149.20;;;18.48
68939;BMP180;59064;45.294;11.816;2022-11-11T10:43:21;103147.60;;;18.70
68939;BMP180;59064;45.294;11.816;2022-11-11T10:48:31;103142.80;;;18.90
68939;BMP180;59064;45.294;11.816;2022-11-11T10:50:59;103143.00;;;18.90
68939;BMP180;59064;45.294;11.816;2022-11-11T10:53:48;103146.00;;;18.94
68939;BMP180;59064;45.294;11.816;2022-11-11T10:59:31;103141.80;;;19.50
68939;BMP180;59064;45.294;11.816;2022-11-11T11:02:16;103139.20;;;19.70
68939;BMP180;59064;45.294;11.816;2022-11-11T11:04:54;103138.00;;;19.66
68939;BMP180;59064;45.294;11.816;2022-11-11T11:07:39;103136.00;;;19.60
68939;BMP180;59064;45.294;11.816;2022-11-11T11:10:18;103135.60;;;19.52
68939;BMP180;59064;45.294;11.816;2022-11-11T11:13:13;103129.20;;;19.50
68939;BMP180;59064;45.294;11.816;2022-11-11T11:15:42;103123.00;;;19.40
68939;BMP180;59064;45.294;11.816;2022-11-11T11:18:15;103123.80;;;19.40
68939;BMP180;59064;45.294;11.816;2022-11-11T11:21:04;103121.80;;;19.40
68939;BMP180;59064;45.294;11.816;2022-11-11T11:23:44;103116.20;;;19.50
68939;BMP180;59064;45.294;11.816;2022-11-11T11:26:12;103115.00;;;19.50
68939;BMP180;59064;45.294;11.816;2022-11-11T11:31:39;103108.00;;;19.80
68939;BMP180;59064;45.294;11.816;2022-11-11T11:34:06;103104.00;;;19.80
68939;BMP180;59064;45.294;11.816;2022-11-11T11:36:32;103104.20;;;19.80
68939;BMP180;59064;45.294;11.816;2022-11-11T11:38:58;103103.80;;;19.90
68939;BMP180;59064;45.294;11.816;2022-11-11T11:41:44;103103.40;;;20.08
68939;BMP180;59064;45.294;11.816;2022-11-11T11:44:33;103103.60;;;20.12
68939;BMP180;59064;45.294;11.816;2022-11-11T11:49:59;103098.20;;;20.20
68939;BMP180;59064;45.294;11.816;2022-11-11T12:00:32;103094.60;;;20.60
68939;BMP180;59064;45.294;11.816;2022-11-11T12:06:06;103084.20;;;20.56
68939;BMP180;59064;45.294;11.816;2022-11-11T12:08:51;103090.40;;;20.42
68939;BMP180;59064;45.294;11.816;2022-11-11T12:19:12;103093.60;;;20.46
68939;BMP180;59064;45.294;11.816;2022-11-11T12:21:59;103094.00;;;20.50
68939;BMP180;59064;45.294;11.816;2022-11-11T12:27:33;103096.40;;;20.40
68939;BMP180;59064;45.294;11.816;2022-11-11T12:30:09;103099.80;;;20.44
68939;BMP180;59064;45.294;11.816;2022-11-11T12:43:56;103100.00;;;21.70
68939;BMP180;59064;45.294;11.816;2022-11-11T12:49:56;103100.80;;;22.58
68939;BMP180;59064;45.294;11.816;2022-11-11T13:00:26;103104.20;;;23.30
68939;BMP180;59064;45.294;11.816;2022-11-11T13:03:06;103098.40;;;23.10
68939;BMP180;59064;45.294;11.816;2022-11-11T13:05:51;103095.00;;;22.98
68939;BMP180;59064;45.294;11.816;2022-11-11T13:11:21;103088.80;;;23.00
68939;BMP180;59064;45.294;11.816;2022-11-11T13:14:33;103087.80;;;23.10
68939;BMP180;59064;45.294;11.816;2022-11-11T13:17:09;103091.20;;;23.30
68939;BMP180;59064;45.294;11.816;2022-11-11T13:19:50;103083.20;;;23.50
68939;BMP180;59064;45.294;11.816;2022-11-11T13:22:21;103085.20;;;23.20
68939;BMP180;59064;45.294;11.816;2022-11-11T13:24:49;103092.20;;;23.02
68939;BMP180;59064;45.294;11.816;2022-11-11T13:32:47;103084.20;;;22.10
68939;BMP180;59064;45.294;11.816;2022-11-11T13:37:49;103089.00;;;21.50
68939;BMP180;59064;45.294;11.816;2022-11-11T13:42:53;103089.00;;;21.06
68939;BMP180;59064;45.294;11.816;2022-11-11T13:47:53;103088.60;;;20.50
68939;BMP180;59064;45.294;11.816;2022-11-11T13:50:26;103091.40;;;20.30
68939;BMP180;59064;45.294;11.816;2022-11-11T13:55:40;103090.20;;;20.14
68939;BMP180;59064;45.294;11.816;2022-11-11T13:58:07;103085.40;;;20.10
68939;BMP180;59064;45.294;11.816;2022-11-11T14:00:45;103088.80;;;20.20
68939;BMP180;59064;45.294;11.816;2022-11-11T14:05:43;103088.00;;;20.30
68939;BMP180;59064;45.294;11.816;2022-11-11T14:08:09;103087.20;;;20.30
68939;BMP180;59064;45.294;11.816;2022-11-11T14:15:51;103088.80;;;20.30
68939;BMP180;59064;45.294;11.816;2022-11-11T14:20:50;103086.00;;;20.06
68939;BMP180;59064;45.294;11.816;2022-11-11T14:25:43;103087.00;;;19.82
68939;BMP180;59064;45.294;11.816;2022-11-11T14:28:31;103084.00;;;19.74
68939;BMP180;59064;45.294;11.816;2022-11-11T14:34:21;103085.40;;;19.50
68939;BMP180;59064;45.294;11.816;2022-11-11T14:37:00;103080.00;;;19.30
68939;BMP180;59064;45.294;11.816;2022-11-11T14:45:04;103080.20;;;18.90
68939;BMP180;59064;45.294;11.816;2022-11-11T14:47:38;103080.20;;;18.78
68939;BMP180;59064;45.294;11.816;2022-11-11T14:52:53;103079.40;;;18.50
68939;BMP180;59064;45.294;11.816;2022-11-11T14:55:31;103074.80;;;18.42
68939;BMP180;59064;45.294;11.816;2022-11-11T15:00:29;103071.00;;;18.30
68939;BMP180;59064;45.294;11.816;2022-11-11T15:06:23;103065.00;;;18.02
68939;BMP180;59064;45.294;11.816;2022-11-11T15:23:26;103066.80;;;17.30
68939;BMP180;59064;45.294;11.816;2022-11-11T15:39:15;103066.20;;;16.40
68939;BMP180;59064;45.294;11.816;2022-11-11T15:41:46;103070.00;;;16.30
68939;BMP180;59064;45.294;11.816;2022-11-11T15:44:24;103069.00;;;16.10
68939;BMP180;59064;45.294;11.816;2022-11-11T15:46:50;103066.00;;;16.00
68939;BMP180;59064;45.294;11.816;2022-11-11T15:49:40;103070.00;;;15.90
68939;BMP180;59064;45.294;11.816;2022-11-11T15:52:33;103065.60;;;15.70
68939;BMP180;59064;45.294;11.816;2022-11-11T15:55:01;103067.00;;;15.58
68939;BMP180;59064;45.294;11.816;2022-11-11T15:57:27;103067.80;;;15.50
68939;BMP180;59064;45.294;11.816;2022-11-11T15:59:55;103067.00;;;15.40
68939;BMP180;59064;45.294;11.816;2022-11-11T16:02:33;103069.60;;;15.30
68939;BMP180;59064;45.294;11.816;2022-11-11T16:07:35;103070.00;;;15.20
68939;BMP180;59064;45.294;11.816;2022-11-11T16:10:24;103066.40;;;15.10
68939;BMP180;59064;45.294;11.816;2022-11-11T16:12:55;103070.00;;;15.00
68939;BMP180;59064;45.294;11.816;2022-11-11T16:18:05;103067.20;;;14.80
68939;BMP180;59064;45.294;11.816;2022-11-11T16:20:42;103067.00;;;14.70
68939;BMP180;59064;45.294;11.816;2022-11-11T16:23:15;103073.40;;;14.60
68939;BMP180;59064;45.294;11.816;2022-11-11T16:25:41;103075.00;;;14.56
68939;BMP180;59064;45.294;11.816;2022-11-11T16:28:10;103078.20;;;14.50
68939;BMP180;59064;45.294;11.816;2022-11-11T16:30:36;103078.40;;;14.50
68939;BMP180;59064;45.294;11.816;2022-11-11T16:33:03;103083.40;;;14.50
68939;BMP180;59064;45.294;11.816;2022-11-11T16:35:35;103086.80;;;14.50
68939;BMP180;59064;45.294;11.816;2022-11-11T16:38:02;103094.40;;;14.40
68939;BMP180;59064;45.294;11.816;2022-11-11T16:40:41;103092.40;;;14.30
68939;BMP180;59064;45.294;11.816;2022-11-11T16:43:23;103098.20;;;14.10
68939;BMP180;59064;45.294;11.816;2022-11-11T16:46:05;103104.00;;;14.00
68939;BMP180;59064;45.294;11.816;2022-11-11T16:51:24;103109.00;;;13.90
68939;BMP180;59064;45.294;11.816;2022-11-11T16:56:43;103089.40;;;13.80
68939;BMP180;59064;45.294;11.816;2022-11-11T16:59:14;103091.40;;;13.82
68939;BMP180;59064;45.294;11.816;2022-11-11T17:01:42;103086.20;;;13.90
68939;BMP180;59064;45.294;11.816;2022-11-11T17:04:09;103084.00;;;13.90